Time;durP1;ratioP1;P1;durP2;ratioP2;P2;SDS_P1;SDS_P2;PMS_P1;PMS_P2;Temp;Humidity;BMP_temperature;BMP_pressure;BME280_temperature;BME280_humidity;BME280_pressure;Samples;Min_cycle;Max_cycle;Signal;HPM_P1;HPM_P2
2021/01/07 00:01:47;;;;;;;15.40;14.30;;;1.60;99.90;;;;;;6070060;23;20395;-77
2021/01/07 00:04:13;;;;;;;16.10;14.80;;;1.70;99.90;;;;;;6068960;23;20419;-77
2021/01/07 00:06:40;;;;;;;15.57;14.47;;;1.60;99.90;;;;;;6092173;23;20966;-77
2021/01/07 00:09:07;;;;;;;16.03;14.83;;;1.70;99.90;;;;;;6069643;23;20422;-76
2021/01/07 00:11:33;;;;;;;16.47;15.23;;;1.70;99.90;;;;;;6068304;23;20439;-76
2021/01/07 00:13:59;;;;;;;15.37;14.37;;;1.60;99.90;;;;;;6068113;23;20467;-77
2021/01/07 00:16:26;;;;;;;16.07;14.93;;;1.70;99.90;;;;;;6068157;23;20463;-77
2021/01/07 00:18:52;;;;;;;16.53;15.13;;;1.60;99.90;;;;;;6067675;23;20416;-76
2021/01/07 00:21:18;;;;;;;15.90;14.73;;;1.70;99.90;;;;;;6068117;23;20412;-77
2021/01/07 00:23:45;;;;;;;15.53;14.43;;;1.60;99.90;;;;;;6070093;23;20894;-77
2021/01/07 00:26:12;;;;;;;15.90;14.70;;;1.70;99.90;;;;;;6068082;23;20419;-77
2021/01/07 00:28:38;;;;;;;16.10;14.90;;;1.70;99.90;;;;;;6069457;23;20391;-77
2021/01/07 00:31:04;;;;;;;16.80;15.50;;;1.70;99.90;;;;;;6069788;23;20490;-77
2021/01/07 00:33:30;;;;;;;16.13;14.93;;;1.70;99.90;;;;;;6069598;23;20391;-77
2021/01/07 00:35:57;;;;;;;16.27;14.97;;;1.70;99.90;;;;;;6069742;23;20396;-77
2021/01/07 00:38:23;;;;;;;15.73;14.57;;;1.70;99.90;;;;;;6091750;23;20443;-77
2021/01/07 00:40:50;;;;;;;15.47;14.27;;;1.60;99.90;;;;;;6068083;23;20426;-77
2021/01/07 00:43:16;;;;;;;15.97;14.77;;;1.70;99.90;;;;;;6069619;23;20393;-77
2021/01/07 00:45:43;;;;;;;16.00;14.80;;;1.60;99.90;;;;;;6067660;23;20423;-77
2021/01/07 00:48:09;;;;;;;15.70;14.50;;;1.70;99.90;;;;;;6069463;23;20964;-77
2021/01/07 00:50:36;;;;;;;16.50;15.10;;;1.70;99.90;;;;;;6091986;23;20463;-77
2021/01/07 00:53:03;;;;;;;16.43;15.23;;;1.70;99.90;;;;;;6068506;23;20426;-77
2021/01/07 00:55:30;;;;;;;16.43;15.23;;;1.70;99.90;;;;;;6068227;23;20421;-77
2021/01/07 00:58:02;;;;;;;16.23;15.03;;;1.70;99.90;;;;;;6068115;23;20469;-77
2021/01/07 01:00:28;;;;;;;16.57;15.33;;;1.70;99.90;;;;;;6067409;23;20513;-77
2021/01/07 01:02:56;;;;;;;16.13;14.93;;;1.70;99.90;;;;;;6069786;23;20388;-77
2021/01/07 01:05:22;;;;;;;17.20;15.80;;;1.70;99.90;;;;;;6069824;23;20778;-76
2021/01/07 01:07:48;;;;;;;16.73;15.50;;;1.70;99.90;;;;;;6067620;23;20442;-77
2021/01/07 01:10:15;;;;;;;17.50;16.00;;;1.70;99.90;;;;;;6068680;23;20431;-77
2021/01/07 01:12:41;;;;;;;16.60;15.40;;;1.60;99.90;;;;;;6068804;23;20391;-77
2021/01/07 01:15:10;;;;;;;17.27;15.97;;;1.60;99.90;;;;;;6068408;23;20400;-77
2021/01/07 01:17:37;;;;;;;17.00;15.60;;;1.60;99.90;;;;;;6069330;23;20472;-77
2021/01/07 01:20:06;;;;;;;17.23;15.80;;;1.70;99.90;;;;;;6069316;23;20394;-78
2021/01/07 01:22:32;;;;;;;16.37;15.07;;;1.60;99.90;;;;;;6091753;23;20755;-78
2021/01/07 01:25:00;;;;;;;17.50;16.03;;;1.70;99.90;;;;;;6067814;23;20415;-77
2021/01/07 01:27:26;;;;;;;16.83;15.53;;;1.70;99.90;;;;;;6067534;23;20435;-77
2021/01/07 01:29:53;;;;;;;17.27;15.97;;;1.70;99.90;;;;;;6068593;23;20426;-77
2021/01/07 01:32:20;;;;;;;17.90;16.40;;;1.70;99.90;;;;;;6067711;23;20419;-77
2021/01/07 01:34:46;;;;;;;16.83;15.50;;;1.70;99.90;;;;;;6067357;23;20415;-77
2021/01/07 01:37:12;;;;;;;16.70;15.50;;;1.70;99.90;;;;;;6091229;23;20426;-78
2021/01/07 01:39:39;;;;;;;17.10;15.70;;;1.70;99.90;;;;;;6068645;23;20395;-77
2021/01/07 01:42:05;;;;;;;17.30;16.00;;;1.70;99.90;;;;;;6069459;23;20388;-77
2021/01/07 01:44:32;;;;;;;17.10;15.80;;;1.70;99.90;;;;;;6068657;23;20823;-77
2021/01/07 01:46:58;;;;;;;16.87;15.57;;;1.70;99.90;;;;;;6069810;23;20463;-77
2021/01/07 01:49:25;;;;;;;16.53;15.23;;;1.70;99.90;;;;;;6069262;23;20436;-78
2021/01/07 01:51:52;;;;;;;17.20;15.80;;;1.60;99.90;;;;;;6071630;23;20441;-77
2021/01/07 01:54:18;;;;;;;17.13;15.83;;;1.60;99.90;;;;;;6071432;23;20402;-77
2021/01/07 01:56:46;;;;;;;18.63;17.07;;;1.70;99.90;;;;;;6071165;23;20478;-77
2021/01/07 01:59:13;;;;;;;17.53;16.13;;;1.70;99.90;;;;;;6069508;23;20422;-77
2021/01/07 02:01:39;;;;;;;17.33;15.93;;;1.60;99.90;;;;;;6069700;23;20740;-77
2021/01/07 02:04:05;;;;;;;17.70;16.30;;;1.60;99.90;;;;;;6069227;23;20455;-77
2021/01/07 02:06:36;;;;;;;17.07;15.77;;;1.60;99.90;;;;;;6071333;23;20472;-77
2021/01/07 02:09:06;;;;;;;18.90;17.37;;;1.60;99.90;;;;;;6070996;23;20881;-76
2021/01/07 02:11:33;;;;;;;17.43;16.07;;;1.60;99.90;;;;;;6069356;23;20523;-77
2021/01/07 02:14:00;;;;;;;17.37;15.97;;;1.60;99.90;;;;;;6069743;23;20479;-78
2021/01/07 02:16:27;;;;;;;17.37;16.07;;;1.60;99.90;;;;;;6093540;23;20461;-77
2021/01/07 02:18:54;;;;;;;17.10;15.80;;;1.60;99.90;;;;;;6068795;23;20423;-77
2021/01/07 02:21:21;;;;;;;17.50;16.00;;;1.60;99.90;;;;;;6070851;23;20393;-77
2021/01/07 02:23:49;;;;;;;17.30;15.90;;;1.60;99.90;;;;;;6070779;23;20419;-77
2021/01/07 02:26:16;;;;;;;16.33;15.07;;;1.60;99.90;;;;;;6093204;23;20426;-76
2021/01/07 02:28:42;;;;;;;17.30;15.90;;;1.60;99.90;;;;;;6070420;23;20391;-77
2021/01/07 02:31:08;;;;;;;16.93;15.63;;;1.60;99.90;;;;;;6069283;23;20440;-77
2021/01/07 02:33:35;;;;;;;17.57;16.17;;;1.60;99.90;;;;;;6071017;23;20395;-77
2021/01/07 02:36:01;;;;;;;17.50;16.20;;;1.60;99.90;;;;;;6071064;23;20426;-76
2021/01/07 02:38:28;;;;;;;18.33;16.73;;;1.60;99.90;;;;;;6068491;23;20439;-78
2021/01/07 02:40:54;;;;;;;16.87;15.57;;;1.60;99.90;;;;;;6069117;23;20417;-77
2021/01/07 02:43:21;;;;;;;17.87;16.43;;;1.60;99.90;;;;;;6070992;23;20478;-77
2021/01/07 02:45:47;;;;;;;17.77;16.27;;;1.60;99.90;;;;;;6070927;23;20398;-77
2021/01/07 02:48:13;;;;;;;18.00;16.60;;;1.60;99.90;;;;;;6068734;23;20426;-77
2021/01/07 02:50:39;;;;;;;17.63;16.23;;;1.60;99.90;;;;;;6070455;23;20438;-77
2021/01/07 02:53:06;;;;;;;17.53;16.13;;;1.60;99.90;;;;;;6070788;23;20396;-77
2021/01/07 02:55:33;;;;;;;18.50;17.00;;;1.60;99.90;;;;;;6070538;23;20439;-77
2021/01/07 02:58:01;;;;;;;17.70;16.30;;;1.60;99.90;;;;;;6070428;23;20415;-77
2021/01/07 03:00:27;;;;;;;17.40;16.10;;;1.60;99.90;;;;;;6068246;23;20411;-77
2021/01/07 03:02:53;;;;;;;18.03;16.53;;;1.60;99.90;;;;;;6068863;23;20443;-77
2021/01/07 03:05:19;;;;;;;18.47;16.87;;;1.60;99.90;;;;;;6068905;23;20418;-77
2021/01/07 03:07:46;;;;;;;18.13;16.63;;;1.60;99.90;;;;;;6070057;23;20411;-77
2021/01/07 03:10:13;;;;;;;17.43;16.03;;;1.60;99.90;;;;;;6069058;23;20524;-77
2021/01/07 03:12:40;;;;;;;18.67;17.00;;;1.60;99.90;;;;;;6070585;23;20397;-76
2021/01/07 03:15:08;;;;;;;18.13;16.73;;;1.60;99.90;;;;;;6068470;23;20415;-77
2021/01/07 03:17:34;;;;;;;18.40;16.90;;;1.60;99.90;;;;;;6070628;23;20411;-77
2021/01/07 03:20:01;;;;;;;17.80;16.37;;;1.60;99.90;;;;;;6092702;23;20423;-78
2021/01/07 03:22:27;;;;;;;17.93;16.50;;;1.60;99.90;;;;;;6070396;23;20398;-77
2021/01/07 03:24:54;;;;;;;17.77;16.37;;;1.60;99.90;;;;;;6068955;23;20460;-77
2021/01/07 03:27:20;;;;;;;17.50;16.10;;;1.60;99.90;;;;;;6068887;23;21141;-76
2021/01/07 03:29:47;;;;;;;18.70;17.10;;;1.60;99.90;;;;;;6069570;23;20451;-80
2021/01/07 03:32:14;;;;;;;17.97;16.57;;;1.60;99.90;;;;;;6068191;23;20419;-78
2021/01/07 03:34:40;;;;;;;18.97;17.47;;;1.60;99.90;;;;;;6068522;23;20397;-77
2021/01/07 03:37:06;;;;;;;17.60;16.20;;;1.60;99.90;;;;;;6070179;23;20418;-78
2021/01/07 03:39:33;;;;;;;17.90;16.50;;;1.60;99.90;;;;;;6069233;23;20418;-77
2021/01/07 03:41:59;;;;;;;17.07;15.77;;;1.50;99.90;;;;;;6069649;23;20879;-77
2021/01/07 03:44:25;;;;;;;17.13;15.83;;;1.50;99.90;;;;;;6070634;23;20774;-78
2021/01/07 03:46:53;;;;;;;17.27;15.77;;;1.40;99.90;;;;;;6069220;23;20442;-79
2021/01/07 03:49:19;;;;;;;17.67;16.30;;;1.40;99.90;;;;;;6071179;23;20412;-78
2021/01/07 03:51:45;;;;;;;17.47;16.07;;;1.40;99.90;;;;;;6069304;23;20937;-78
2021/01/07 03:54:11;;;;;;;16.77;15.47;;;1.40;99.90;;;;;;6067415;23;20426;-77
2021/01/07 03:56:38;;;;;;;17.87;16.47;;;1.40;99.90;;;;;;6067260;23;20417;-77
2021/01/07 03:59:04;;;;;;;17.80;16.40;;;1.40;99.90;;;;;;6066054;23;20414;-76
2021/01/07 04:01:30;;;;;;;18.40;16.90;;;1.40;99.90;;;;;;6065219;23;20422;-75
2021/01/07 04:03:57;;;;;;;18.73;17.23;;;1.40;99.90;;;;;;6067199;23;20426;-77
2021/01/07 04:06:29;;;;;;;18.50;16.90;;;1.40;99.90;;;;;;6068187;23;20432;-76
2021/01/07 04:08:55;;;;;;;18.17;16.77;;;1.40;99.90;;;;;;6070780;23;20376;-77
2021/01/07 04:11:22;;;;;;;18.73;17.13;;;1.40;99.90;;;;;;6066759;23;20515;-77
2021/01/07 04:13:48;;;;;;;17.47;16.10;;;1.50;99.90;;;;;;6066384;23;20427;-77
2021/01/07 04:16:14;;;;;;;16.83;15.53;;;1.50;99.90;;;;;;6067025;23;20486;-77
2021/01/07 04:18:41;;;;;;;16.90;15.60;;;1.50;99.90;;;;;;6066842;23;20428;-78
2021/01/07 04:21:08;;;;;;;18.50;17.00;;;1.40;99.90;;;;;;6067852;23;20415;-79
2021/01/07 04:23:34;;;;;;;16.67;15.37;;;1.40;99.90;;;;;;6071223;23;20863;-78
2021/01/07 04:26:01;;;;;;;19.03;17.40;;;1.40;99.90;;;;;;6071793;23;20423;-77
2021/01/07 04:28:28;;;;;;;17.93;16.50;;;1.40;99.90;;;;;;6069615;23;20887;-77
2021/01/07 04:30:54;;;;;;;18.87;17.27;;;1.40;99.90;;;;;;6069792;23;20443;-77
2021/01/07 04:33:20;;;;;;;19.10;17.20;;;1.50;99.90;;;;;;6069197;23;20431;-78
2021/01/07 04:35:47;;;;;;;19.33;17.73;;;1.50;99.90;;;;;;6070968;23;21013;-77
2021/01/07 04:38:14;;;;;;;17.50;16.00;;;1.50;99.90;;;;;;6068973;23;20438;-77
2021/01/07 04:40:40;;;;;;;18.03;16.47;;;1.50;99.90;;;;;;6069564;23;20419;-77
2021/01/07 04:43:06;;;;;;;18.37;16.77;;;1.50;99.90;;;;;;6069379;23;20415;-77
2021/01/07 04:45:33;;;;;;;18.03;16.63;;;1.50;99.90;;;;;;6069501;23;20426;-78
2021/01/07 04:48:01;;;;;;;18.20;16.70;;;1.50;99.90;;;;;;6071390;23;20404;-77
2021/01/07 04:50:27;;;;;;;18.70;17.10;;;1.50;99.90;;;;;;6069579;23;20836;-77
2021/01/07 04:52:53;;;;;;;17.83;16.43;;;1.50;99.90;;;;;;6069995;23;20419;-77
2021/01/07 04:55:21;;;;;;;17.97;16.43;;;1.50;99.90;;;;;;6068322;23;20916;-77
2021/01/07 04:57:48;;;;;;;18.33;16.73;;;1.60;99.90;;;;;;6068506;23;20441;-78
2021/01/07 05:00:15;;;;;;;19.27;17.67;;;1.50;99.90;;;;;;6070253;23;20470;-77
2021/01/07 05:02:41;;;;;;;18.50;17.00;;;1.50;99.90;;;;;;6070790;23;20392;-77
2021/01/07 05:05:09;;;;;;;17.83;16.33;;;1.60;99.90;;;;;;6069306;23;20890;-77
2021/01/07 05:07:37;;;;;;;18.87;17.27;;;1.60;99.90;;;;;;6069460;23;20439;-77
2021/01/07 05:10:05;;;;;;;18.10;16.70;;;1.50;99.90;;;;;;6068804;23;20481;-78
2021/01/07 05:12:33;;;;;;;18.43;16.83;;;1.60;99.90;;;;;;6071011;23;20391;-78
2021/01/07 05:14:59;;;;;;;18.73;17.33;;;1.50;99.90;;;;;;6069374;23;20411;-77
2021/01/07 05:17:25;;;;;;;19.00;17.33;;;1.50;99.90;;;;;;6071150;23;20656;-77
2021/01/07 05:19:52;;;;;;;18.37;16.77;;;1.50;99.90;;;;;;6093553;23;20422;-78
2021/01/07 05:22:18;;;;;;;19.00;17.57;;;1.50;99.90;;;;;;6070713;23;20917;-78
2021/01/07 05:24:44;;;;;;;18.63;17.13;;;1.50;99.90;;;;;;6070570;23;20401;-77
2021/01/07 05:27:12;;;;;;;19.27;17.67;;;1.50;99.90;;;;;;6069070;23;20440;-77
2021/01/07 05:29:40;;;;;;;19.10;17.40;;;1.50;99.90;;;;;;6068723;23;20542;-77
2021/01/07 05:32:07;;;;;;;19.33;17.70;;;1.60;99.90;;;;;;6070817;23;20435;-77
2021/01/07 05:34:45;;;;;;;19.83;18.23;;;1.60;99.90;;;;;;6069087;23;20426;-78
2021/01/07 05:37:16;;;;;;;18.37;16.97;;;1.60;99.90;;;;;;6070048;23;20798;-77
2021/01/07 05:39:44;;;;;;;21.10;19.30;;;1.50;99.90;;;;;;6068980;23;20834;-77
2021/01/07 05:42:11;;;;;;;19.00;17.40;;;1.60;99.90;;;;;;6068964;23;20481;-77
2021/01/07 05:44:43;;;;;;;19.83;18.13;;;1.60;99.90;;;;;;6069450;23;20411;-77
2021/01/07 05:47:10;;;;;;;19.57;17.97;;;1.50;99.90;;;;;;6068983;23;20442;-78
2021/01/07 05:49:37;;;;;;;18.80;17.20;;;1.50;99.90;;;;;;6070619;23;20410;-78
2021/01/07 05:52:07;;;;;;;19.97;18.37;;;1.50;99.90;;;;;;6068779;23;20439;-77
2021/01/07 05:54:34;;;;;;;19.63;18.00;;;1.50;99.90;;;;;;6070632;23;20479;-77
2021/01/07 05:57:03;;;;;;;19.67;17.97;;;1.50;99.90;;;;;;6068856;23;20438;-78
2021/01/07 05:59:32;;;;;;;19.70;18.00;;;1.50;99.90;;;;;;6068899;23;20505;-77
2021/01/07 06:02:03;;;;;;;20.57;18.67;;;1.50;99.90;;;;;;6069762;23;20888;-77
2021/01/07 06:04:32;;;;;;;19.43;17.73;;;1.50;99.90;;;;;;6069893;23;20375;-77
2021/01/07 06:06:59;;;;;;;20.60;18.80;;;1.50;99.90;;;;;;6069963;23;20491;-78
2021/01/07 06:09:29;;;;;;;20.37;18.50;;;1.50;99.90;;;;;;6069832;23;20804;-78
2021/01/07 06:11:57;;;;;;;19.07;17.57;;;1.50;99.90;;;;;;6068308;23;20466;-78
2021/01/07 06:14:24;;;;;;;19.37;17.77;;;1.50;99.90;;;;;;6067384;23;20415;-78
2021/01/07 06:16:53;;;;;;;19.77;17.93;;;1.50;99.90;;;;;;6069098;23;20422;-78
2021/01/07 06:19:38;;;;;;;19.57;17.90;;;1.50;99.90;;;;;;6066858;23;20452;-77
2021/01/07 06:22:09;;;;;;;18.17;16.57;;;1.50;99.90;;;;;;6067793;23;20439;-77
2021/01/07 06:24:36;;;;;;;19.37;17.77;;;1.50;99.90;;;;;;6070608;23;20397;-78
2021/01/07 06:27:31;;;;;;;19.40;17.80;;;1.50;99.90;;;;;;6070691;23;20732;-77
2021/01/07 06:30:32;;;;;;;19.40;17.67;;;1.60;99.90;;;;;;6070743;23;20383;-78
2021/01/07 06:33:09;;;;;;;18.70;17.20;;;1.50;99.90;;;;;;5981990;24;20577;-77
2021/01/07 06:35:44;;;;;;;19.97;18.27;;;1.60;99.90;;;;;;6056420;23;20423;-78
2021/01/07 06:38:23;;;;;;;19.00;17.37;;;1.60;99.90;;;;;;6071766;23;20443;-78
2021/01/07 06:40:50;;;;;;;18.63;17.13;;;1.60;99.90;;;;;;6072092;23;20375;-78
2021/01/07 06:43:19;;;;;;;19.10;17.47;;;1.60;99.90;;;;;;6070920;23;20472;-78
2021/01/07 06:45:51;;;;;;;19.60;18.00;;;1.60;99.90;;;;;;6072315;23;20391;-77
2021/01/07 06:48:25;;;;;;;19.57;17.77;;;1.60;99.90;;;;;;6071378;23;20910;-78
2021/01/07 06:50:55;;;;;;;20.43;18.60;;;1.60;99.90;;;;;;6070126;23;20456;-78
2021/01/07 06:53:22;;;;;;;19.97;18.27;;;1.50;99.90;;;;;;6070578;23;20418;-77
2021/01/07 06:56:15;;;;;;;18.90;17.33;;;1.50;99.90;;;;;;6069551;23;20424;-77
2021/01/07 06:58:42;;;;;;;20.47;18.57;;;1.50;99.90;;;;;;6072110;23;20466;-78
2021/01/07 07:01:10;;;;;;;19.37;17.70;;;1.50;99.90;;;;;;6070692;23;20769;-77
2021/01/07 07:03:47;;;;;;;18.57;16.97;;;1.50;99.90;;;;;;6072269;23;20423;-77
2021/01/07 07:06:16;;;;;;;18.13;16.53;;;1.50;99.90;;;;;;6072234;23;20471;-77
2021/01/07 07:08:45;;;;;;;18.83;17.33;;;1.40;99.90;;;;;;6070618;23;20899;-77
2021/01/07 07:11:12;;;;;;;20.10;18.40;;;1.40;99.90;;;;;;6072390;23;20433;-78
2021/01/07 07:13:43;;;;;;;19.57;17.97;;;1.40;99.90;;;;;;6070437;23;20432;-78
2021/01/07 07:16:14;;;;;;;19.93;18.33;;;1.50;99.90;;;;;;6094214;23;20408;-77
2021/01/07 07:18:40;;;;;;;19.93;18.23;;;1.50;99.90;;;;;;6069816;23;20414;-78
2021/01/07 07:21:19;;;;;;;20.83;19.03;;;1.50;99.90;;;;;;6070988;23;20801;-77
2021/01/07 07:23:47;;;;;;;19.83;18.03;;;1.50;99.90;;;;;;6072120;23;20404;-78
2021/01/07 07:26:15;;;;;;;20.07;18.27;;;1.50;99.90;;;;;;6070476;23;20430;-78
2021/01/07 07:28:47;;;;;;;20.10;18.17;;;1.50;99.90;;;;;;6071607;23;20884;-77
2021/01/07 07:31:33;;;;;;;20.53;18.63;;;1.50;99.90;;;;;;6070660;23;20446;-78
2021/01/07 07:34:01;;;;;;;19.17;17.57;;;1.40;99.90;;;;;;6070473;23;20411;-77
2021/01/07 07:36:31;;;;;;;20.57;18.70;;;1.50;99.90;;;;;;6069519;23;21037;-77
2021/01/07 07:38:57;;;;;;;19.07;17.47;;;1.50;99.90;;;;;;6071017;23;20394;-78
2021/01/07 07:41:27;;;;;;;19.07;17.37;;;1.50;99.90;;;;;;6069674;23;20470;-77
2021/01/07 07:43:54;;;;;;;19.43;17.73;;;1.50;99.90;;;;;;6071779;23;20447;-77
2021/01/07 07:46:24;;;;;;;20.33;18.53;;;1.50;99.90;;;;;;6069967;23;20412;-77
2021/01/07 07:48:58;;;;;;;21.13;19.33;;;1.50;99.90;;;;;;6071306;23;20404;-77
2021/01/07 07:51:25;;;;;;;19.10;17.57;;;1.60;99.90;;;;;;6071696;23;20978;-77
2021/01/07 07:54:01;;;;;;;20.43;18.53;;;1.60;99.90;;;;;;6071930;23;20391;-77
2021/01/07 07:56:28;;;;;;;19.57;17.90;;;1.60;99.90;;;;;;6072447;23;20383;-78
2021/01/07 07:58:58;;;;;;;19.60;17.90;;;1.70;99.90;;;;;;6069725;23;20466;-77
2021/01/07 08:01:37;;;;;;;19.13;17.53;;;1.60;99.90;;;;;;6071312;23;20382;-77
2021/01/07 08:04:04;;;;;;;19.23;17.63;;;1.70;99.90;;;;;;6070273;23;20413;-77
2021/01/07 08:06:30;;;;;;;19.17;17.47;;;1.70;99.90;;;;;;6071273;23;20415;-78
2021/01/07 08:09:05;;;;;;;19.67;17.57;;;1.70;99.90;;;;;;6069557;23;20418;-77
2021/01/07 08:11:33;;;;;;;18.30;16.60;;;1.70;99.90;;;;;;6070153;23;20950;-77
2021/01/07 08:13:59;;;;;;;19.13;17.33;;;1.70;99.90;;;;;;6070066;23;20428;-77
2021/01/07 08:16:28;;;;;;;19.70;17.90;;;1.70;99.90;;;;;;6069939;23;20419;-77
2021/01/07 08:18:54;;;;;;;19.03;17.43;;;1.70;99.90;;;;;;6071374;23;20392;-78
2021/01/07 08:21:20;;;;;;;18.27;16.57;;;1.70;99.90;;;;;;6071057;23;20883;-77
2021/01/07 08:23:47;;;;;;;17.47;15.93;;;1.70;99.90;;;;;;6070382;23;20416;-77
2021/01/07 08:26:27;;;;;;;16.57;15.17;;;1.70;99.90;;;;;;6071333;23;20397;-77
2021/01/07 08:28:54;;;;;;;17.57;15.97;;;1.70;99.90;;;;;;6070910;23;20869;-77
2021/01/07 08:31:24;;;;;;;17.37;15.83;;;1.80;99.90;;;;;;6070879;23;20454;-77
2021/01/07 08:33:52;;;;;;;17.37;15.87;;;1.80;99.90;;;;;;6069344;23;20419;-78
2021/01/07 08:36:20;;;;;;;18.00;16.40;;;1.90;99.90;;;;;;6068995;23;20965;-78
2021/01/07 08:38:49;;;;;;;18.00;16.40;;;1.90;99.90;;;;;;6069034;23;20423;-78
2021/01/07 08:41:18;;;;;;;18.20;16.47;;;2.00;99.90;;;;;;6071053;23;20455;-78
2021/01/07 08:43:47;;;;;;;17.37;15.87;;;2.10;99.90;;;;;;6069746;23;20444;-77
2021/01/07 08:46:14;;;;;;;19.40;17.63;;;2.10;99.90;;;;;;6071354;23;20885;-78
2021/01/07 08:48:41;;;;;;;17.53;15.83;;;2.10;99.90;;;;;;6070683;23;20392;-77
2021/01/07 08:51:18;;;;;;;17.63;15.93;;;2.20;99.90;;;;;;6071492;23;20433;-78
2021/01/07 08:53:48;;;;;;;19.47;17.77;;;2.20;99.90;;;;;;6070205;23;20421;-78
2021/01/07 08:56:30;;;;;;;19.47;17.63;;;2.10;99.90;;;;;;6070423;23;20420;-77
2021/01/07 08:59:22;;;;;;;20.00;18.20;;;2.20;99.90;;;;;;6069613;23;20412;-78
2021/01/07 09:01:50;;;;;;;18.17;16.50;;;2.30;99.90;;;;;;6070399;23;20423;-77
2021/01/07 09:04:31;;;;;;;20.60;18.80;;;2.40;99.90;;;;;;6070371;23;20421;-77
2021/01/07 09:07:00;;;;;;;21.70;19.90;;;2.50;99.90;;;;;;6093885;23;20443;-77
2021/01/07 09:09:27;;;;;;;21.10;19.23;;;2.50;99.90;;;;;;6071949;23;20945;-78
2021/01/07 09:12:15;;;;;;;19.77;18.07;;;2.60;99.90;;;;;;6071761;23;20922;-77
2021/01/07 09:14:45;;;;;;;20.03;18.33;;;2.70;99.90;;;;;;6069994;23;20403;-78
2021/01/07 09:17:12;;;;;;;19.73;18.00;;;2.80;99.90;;;;;;6070987;23;20423;-78
2021/01/07 09:19:38;;;;;;;20.77;18.80;;;2.80;99.90;;;;;;6069561;23;20419;-77
2021/01/07 09:22:04;;;;;;;21.73;19.83;;;2.80;99.90;;;;;;6070997;23;20396;-78
2021/01/07 09:24:35;;;;;;;21.97;19.67;;;2.90;99.90;;;;;;6069293;23;20734;-78
2021/01/07 09:27:10;;;;;;;21.03;19.20;;;2.90;99.90;;;;;;6069678;23;20441;-77
2021/01/07 09:29:37;;;;;;;20.60;18.70;;;2.90;99.90;;;;;;6069531;23;20402;-77
2021/01/07 09:32:05;;;;;;;19.73;18.13;;;3.00;99.90;;;;;;6069147;23;20441;-77
2021/01/07 09:34:32;;;;;;;20.10;18.47;;;3.10;99.90;;;;;;6069172;23;20414;-77
2021/01/07 09:37:10;;;;;;;19.93;18.17;;;3.10;99.90;;;;;;6071541;23;21029;-77
2021/01/07 09:39:37;;;;;;;19.63;18.03;;;3.20;99.90;;;;;;6069286;23;20414;-77
2021/01/07 09:42:05;;;;;;;20.63;18.80;;;3.30;99.90;;;;;;6071451;23;20391;-77
2021/01/07 09:44:32;;;;;;;20.03;18.43;;;3.30;99.90;;;;;;6071315;23;20739;-77
2021/01/07 09:46:59;;;;;;;19.97;18.17;;;3.40;99.90;;;;;;6068579;23;20443;-77
2021/01/07 09:49:26;;;;;;;19.87;18.20;;;3.30;99.90;;;;;;6070760;23;20881;-78
2021/01/07 09:51:53;;;;;;;20.83;19.03;;;3.30;99.90;;;;;;6068954;23;20435;-78
2021/01/07 09:54:22;;;;;;;20.13;18.43;;;3.40;99.90;;;;;;6070431;23;20421;-78
2021/01/07 09:56:51;;;;;;;20.60;18.83;;;3.40;99.90;;;;;;6070544;23;20492;-77
2021/01/07 09:59:17;;;;;;;21.47;19.57;;;3.40;99.90;;;;;;6068794;23;20456;-78
2021/01/07 10:01:44;;;;;;;19.93;18.20;;;3.40;99.90;;;;;;6070644;23;20387;-77
2021/01/07 10:04:10;;;;;;;19.70;18.10;;;3.40;99.90;;;;;;6068761;23;20419;-78
2021/01/07 10:06:37;;;;;;;19.77;17.90;;;3.40;99.90;;;;;;6073875;23;20421;-78
2021/01/07 10:09:03;;;;;;;20.20;18.30;;;3.50;99.90;;;;;;6072015;23;20390;-78
2021/01/07 10:11:30;;;;;;;18.20;16.70;;;3.40;99.90;;;;;;6070785;23;20437;-78
2021/01/07 10:13:56;;;;;;;19.00;17.40;;;3.50;99.90;;;;;;6071105;23;20276;-78
2021/01/07 10:16:22;;;;;;;19.80;18.00;;;3.40;99.90;;;;;;6071362;23;20422;-77
2021/01/07 10:18:49;;;;;;;16.57;15.07;;;3.50;99.90;;;;;;6070169;23;20424;-78
2021/01/07 10:21:20;;;;;;;12.57;9.47;;;3.50;99.90;;;;;;6071990;23;20405;-77
2021/01/07 10:23:48;;;;;;;12.60;9.27;;;3.60;99.90;;;;;;6070265;23;20441;-78
2021/01/07 10:26:16;;;;;;;10.97;8.70;;;3.60;99.90;;;;;;6070691;23;20446;-78
2021/01/07 10:28:44;;;;;;;13.03;9.83;;;3.70;99.90;;;;;;6072323;23;20786;-78
2021/01/07 10:31:11;;;;;;;12.57;10.13;;;3.70;99.90;;;;;;6071658;23;20438;-77
2021/01/07 10:33:39;;;;;;;12.50;9.87;;;3.80;99.90;;;;;;6070625;23;20423;-77
2021/01/07 10:36:07;;;;;;;14.10;9.93;;;3.80;99.90;;;;;;6070074;23;20454;-78
2021/01/07 10:38:34;;;;;;;12.63;9.30;;;3.80;99.90;;;;;;6069895;23;20441;-78
2021/01/07 10:41:02;;;;;;;19.83;17.73;;;3.80;99.90;;;;;;6071809;23;20391;-77
2021/01/07 10:43:30;;;;;;;13.47;9.73;;;3.90;99.90;;;;;;6072298;23;20394;-78
2021/01/07 10:45:56;;;;;;;12.73;9.93;;;3.90;99.90;;;;;;6071401;23;20873;-77
2021/01/07 10:48:24;;;;;;;13.77;10.53;;;3.80;99.90;;;;;;6093725;23;20753;-77
2021/01/07 10:50:51;;;;;;;16.13;14.63;;;3.80;99.90;;;;;;6069987;23;20203;-77
2021/01/07 10:53:48;;;;;;;16.37;14.80;;;3.80;99.90;;;;;;6072084;23;20218;-78
2021/01/07 10:56:24;;;;;;;16.00;14.37;;;3.80;99.90;;;;;;6054505;23;20419;-78
2021/01/07 10:59:03;;;;;;;17.20;14.87;;;3.80;99.90;;;;;;6069960;23;20425;-78
2021/01/07 11:01:39;;;;;;;16.73;14.90;;;3.80;99.90;;;;;;6071689;23;20151;-78
2021/01/07 11:04:33;;;;;;;16.93;14.97;;;3.80;99.90;;;;;;6071721;23;20395;-78
2021/01/07 11:07:10;;;;;;;16.43;14.73;;;3.90;99.90;;;;;;6069735;23;20441;-78
2021/01/07 11:09:40;;;;;;;15.40;13.90;;;3.90;99.90;;;;;;6071029;23;20411;-77
2021/01/07 11:12:13;;;;;;;16.37;14.67;;;4.00;99.90;;;;;;6070656;23;20486;-78
2021/01/07 11:14:46;;;;;;;17.40;14.77;;;3.90;99.90;;;;;;6070547;23;20420;-77
2021/01/07 11:17:16;;;;;;;15.53;13.83;;;4.00;99.90;;;;;;6070083;23;20958;-78
2021/01/07 11:19:47;;;;;;;16.60;13.60;;;4.00;99.90;;;;;;6069183;23;20178;-78
2021/01/07 11:22:25;;;;;;;14.23;12.73;;;4.10;99.90;;;;;;6069399;23;20167;-78
2021/01/07 11:24:53;;;;;;;13.93;12.50;;;4.10;99.90;;;;;;6093370;23;20757;-78
2021/01/07 11:27:22;;;;;;;15.97;12.40;;;4.20;99.90;;;;;;6070665;23;20195;-78
2021/01/07 11:29:48;;;;;;;15.57;13.97;;;4.20;99.90;;;;;;6070298;23;20175;-77
2021/01/07 11:32:15;;;;;;;14.20;12.80;;;4.20;99.90;;;;;;6069395;23;20431;-78
2021/01/07 11:34:41;;;;;;;15.20;12.53;;;4.20;99.90;;;;;;6070618;23;20281;-78
2021/01/07 11:37:14;;;;;;;16.27;13.67;;;4.30;99.90;;;;;;6093256;23;20539;-78
2021/01/07 11:40:06;;;;;;;17.13;13.93;;;4.30;99.90;;;;;;6092875;23;20595;-78
2021/01/07 11:43:00;;;;;;;16.63;14.83;;;4.40;99.90;;;;;;6069504;23;20627;-79
2021/01/07 11:45:31;;;;;;;16.87;14.07;;;4.40;99.90;;;;;;6071432;23;20160;-78
2021/01/07 11:48:05;;;;;;;19.67;17.70;;;4.40;99.90;;;;;;6069107;23;20441;-78
2021/01/07 11:50:36;;;;;;;19.10;17.27;;;4.40;99.90;;;;;;6070681;23;20633;-79
2021/01/07 11:53:03;;;;;;;17.97;16.17;;;4.30;99.90;;;;;;6071793;23;20155;-78
2021/01/07 11:55:30;;;;;;;20.17;18.30;;;4.40;99.90;;;;;;6069352;23;20182;-78
2021/01/07 11:57:58;;;;;;;18.03;16.43;;;4.30;99.90;;;;;;6069364;23;20431;-78
2021/01/07 12:00:25;;;;;;;18.90;17.20;;;4.30;99.90;;;;;;6071123;23;20178;-78
2021/01/07 12:02:52;;;;;;;18.50;16.90;;;4.40;99.90;;;;;;6070076;23;20174;-78
2021/01/07 12:05:20;;;;;;;18.70;17.00;;;4.30;99.90;;;;;;6069554;23;20484;-78
2021/01/07 12:08:02;;;;;;;19.97;18.10;;;4.30;99.90;;;;;;6069812;23;20444;-78
2021/01/07 12:10:31;;;;;;;21.67;19.77;;;4.40;99.90;;;;;;6070621;23;20155;-78
2021/01/07 12:13:06;;;;;;;22.20;20.03;;;4.30;99.90;;;;;;6070856;23;20630;-78
2021/01/07 12:15:35;;;;;;;22.23;20.23;;;4.30;99.90;;;;;;6071253;23;20155;-78
2021/01/07 12:18:03;;;;;;;22.43;20.30;;;4.30;99.90;;;;;;6070981;23;20190;-79
2021/01/07 12:20:30;;;;;;;20.47;18.57;;;4.40;99.90;;;;;;6068866;23;20186;-78
2021/01/07 12:22:58;;;;;;;21.27;19.37;;;4.40;99.90;;;;;;6070409;23;20174;-77
2021/01/07 12:25:25;;;;;;;20.73;18.93;;;4.40;99.90;;;;;;6069199;23;20190;-78
2021/01/07 12:27:52;;;;;;;21.27;19.43;;;4.40;99.90;;;;;;6092584;23;20194;-78
2021/01/07 12:30:20;;;;;;;20.73;18.90;;;4.40;99.90;;;;;;6068519;23;20182;-78
2021/01/07 12:33:00;;;;;;;20.03;18.33;;;4.40;99.90;;;;;;6070639;23;20182;-78
2021/01/07 12:35:34;;;;;;;21.07;19.27;;;4.40;99.90;;;;;;6069562;23;20193;-78
2021/01/07 12:38:10;;;;;;;21.10;19.20;;;4.40;99.90;;;;;;6069590;23;20210;-78
2021/01/07 12:40:43;;;;;;;20.00;18.40;;;4.50;99.90;;;;;;6070323;23;20159;-78
2021/01/07 12:43:16;;;;;;;19.53;18.00;;;4.40;99.90;;;;;;6069359;23;20924;-78
2021/01/07 12:45:45;;;;;;;20.63;18.70;;;4.40;99.90;;;;;;6070971;23;20710;-78
2021/01/07 12:48:13;;;;;;;19.53;17.83;;;4.40;99.90;;;;;;6070085;23;20242;-77